Time,TemperatureF,DewpointF,PressureIn,WindDirection,WindDirectionDegrees,WindSpeedMPH,WindSpeedGustMPH,Humidity,HourlyPrecipIn,Conditions,Clouds,dailyrainin,SoftwareType,DateUTC
2013-06-30 09:13:00,67.8,63.5,29.84,South,180,28.4,28.4,86,0.00,,,0.00,WUHU21623XXSP,2013-06-30 14:13:00,
2013-06-30 09:14:00,67.8,63.5,29.84,South,180,28.4,28.4,86,0.00,,,0.00,WUHU21623XXSP,2013-06-30 14:14:00,
2013-06-30 09:15:00,67.8,63.5,29.84,NE,45,7.2,100.0,86,0.00,,,0.00,WUHU21623XXSP,2013-06-30 14:15:00,
2013-06-30 09:20:00,68.5,64.2,29.84,NW,320,18.0,100.0,86,0.00,,,0.00,WUHU21623XXSP,2013-06-30 14:20:00,
2013-06-30 09:25:00,68.9,64.6,29.84,NNW,327,16.4,18.9,86,0.00,,,0.00,WUHU21623XXSP,2013-06-30 14:25:00,
2013-06-30 09:30:00,69.1,64.7,29.84,NW,322,17.0,18.0,86,0.00,,,0.00,WUHU21623XXSP,2013-06-30 14:30:00,
2013-06-30 09:35:00,68.7,64.3,29.85,NNE,22,8.1,85.7,86,0.00,,,0.00,WUHU21623XXSP,2013-06-30 14:35:00,
2013-06-30 09:40:00,68.5,63.8,29.85,NE,45,5.6,85.7,85,0.00,,,0.00,WUHU21623XXSP,2013-06-30 14:40:00,
2013-06-30 09:45:00,68.4,63.7,29.85,NNE,22,8.9,14.1,85,0.00,,,0.00,WUHU21623XXSP,2013-06-30 14:45:00,
2013-06-30 09:50:00,68.4,63.7,29.85,NE,45,17.4,17.4,85,0.00,,,0.00,WUHU21623XXSP,2013-06-30 14:50:00,
2013-06-30 09:55:00,68.5,63.8,29.85,NNE,22,9.4,17.4,85,0.00,,,0.00,WUHU21623XXSP,2013-06-30 14:55:00,
2013-06-30 10:00:00,68.7,64.0,29.85,NE,45,6.9,14.1,85,0.00,,,0.00,WUHU21623XXSP,2013-06-30 15:00:00,
2013-06-30 10:05:00,68.7,64.0,29.85,NNE,22,1.8,14.1,85,0.00,,,0.00,WUHU21623XXSP,2013-06-30 15:05:00,
2013-06-30 10:10:00,68.7,64.0,29.85,NE,45,7.2,14.1,85,0.00,,,0.00,WUHU21623XXSP,2013-06-30 15:10:00,
2013-06-30 10:15:00,68.9,64.2,29.85,NE,45,9.6,14.1,85,0.00,,,0.00,WUHU21623XXSP,2013-06-30 15:15:00,
2013-06-30 10:20:00,69.3,64.5,29.85,West,270,14.1,14.1,85,0.00,,,0.00,WUHU21623XXSP,2013-06-30 15:20:00,
2013-06-30 10:30:00,70.2,65.2,29.85,West,270,14.1,14.1,84,0.00,,,0.00,WUHU21623XXSP,2013-06-30 15:30:00,
2013-06-30 11:30:00,72.1,65.7,29.86,West,270,14.1,14.1,80,0.00,,,0.00,WUHU21623XXSP,2013-06-30 16:30:00,
2013-06-30 12:30:00,71.2,64.1,29.87,West,270,14.1,14.1,78,0.00,,,0.00,WUHU21623XXSP,2013-06-30 17:30:00,
2013-06-30 13:30:00,74.8,64.2,29.87,NE,45,4.3,4.3,69,0.00,,,0.00,WUHU21623XXSP,2013-06-30 18:30:00,
2013-06-30 14:30:00,74.1,63.5,29.87,ENE,68,0.0,0.0,69,0.00,,,0.00,WUHU21623XXSP,2013-06-30 19:30:00,
2013-06-30 15:30:00,75.4,63.0,29.86,NE,45,14.3,14.3,65,0.00,,,0.00,WUHU21623XXSP,2013-06-30 20:30:00,
2013-06-30 16:30:00,75.9,61.7,29.86,NE,45,9.6,9.6,61,0.00,,,0.00,WUHU21623XXSP,2013-06-30 21:30:00,
2013-06-30 17:30:00,77.4,60.7,29.88,NE,45,10.3,10.3,56,0.00,,,0.00,WUHU21623XXSP,2013-06-30 22:30:00,
2013-06-30 18:30:00,76.3,60.1,29.89,NE,45,13.0,13.0,57,0.00,,,0.00,WUHU21623XXSP,2013-06-30 23:30:00,
2013-06-30 19:30:00,72.7,56.8,29.91,NE,45,0.0,0.0,57,0.00,,,0.00,WUHU21623XXSP,2013-07-01 00:30:00,
2013-06-30 20:30:00,68.5,53.8,29.92,ENE,68,0.0,0.0,59,0.00,,,0.00,WUHU21623XXSP,2013-07-01 01:30:00,
2013-06-30 22:30:00,64.6,50.1,29.96,NE,45,0.0,0.0,59,0.00,,,0.00,WUHU21623XXSP,2013-07-01 03:30:00,
2013-06-30 23:30:00,61.5,50.6,29.95,NNW,338,0.0,0.0,67,0.00,,,0.00,WUHU21623XXSP,2013-07-01 04:30:00,